WAT6714 LPPS-LPFR
Flight info
| Callsign | WAT6714 |
|---|---|
| Flight time | N/A |
| Altitude | 38000 |
| Route | DEGUN DCT NARTA DCT GIMAL |
| Aircraft | A319/M-SDE3FGHIRWY/LB1 |
Departure
| Time | 2026-04-24 16:53 |
|---|---|
| Airport | Porto Santo Airport (LPPS) |
Arrival
| Time | N/A |
|---|---|
| Airport | Faro - Gago Coutinho International Airport (LPFR) |
| Time | Latitude | Longitude | Altitude | Speed | Heading |
|---|---|---|---|---|---|
| 2026-04-24 16:39 | 33.06997 | -16.34631 | 249 ft | 0 kts | 311° |
| 2026-04-24 16:48 | 33.07005 | -16.34643 | 249 ft | 4 kts | 311° |
| 2026-04-24 16:48 | 33.07023 | -16.34667 | 249 ft | 4 kts | 311° |
| 2026-04-24 16:48 | 33.07041 | -16.34691 | 249 ft | 4 kts | 311° |
| 2026-04-24 16:48 | 33.07055 | -16.34712 | 249 ft | 1 kts | 311° |
| 2026-04-24 16:49 | 33.07056 | -16.34712 | 249 ft | 1 kts | 311° |
| 2026-04-24 16:51 | 33.07054 | -16.34717 | 249 ft | 2 kts | 243° |
| 2026-04-24 16:51 | 33.07005 | -16.34716 | 249 ft | 12 kts | 179° |
| 2026-04-24 16:51 | 33.06963 | -16.34804 | 249 ft | 16 kts | 271° |
| 2026-04-24 16:51 | 33.06962 | -16.34915 | 250 ft | 12 kts | 268° |
| 2026-04-24 16:52 | 33.06964 | -16.34964 | 251 ft | 4 kts | 300° |
| 2026-04-24 16:52 | 33.06997 | -16.34977 | 251 ft | 0 kts | 356° |
| 2026-04-24 16:52 | 33.07291 | -16.34989 | 252 ft | 94 kts | 358° |
| 2026-04-24 16:52 | 33.08210 | -16.35025 | 426 ft | 157 kts | 358° |
| 2026-04-24 16:53 | 33.09386 | -16.35060 | 1128 ft | 189 kts | 358° |
| 2026-04-24 16:53 | 33.10831 | -16.35070 | 1903 ft | 226 kts | 357° |
| 2026-04-24 16:53 | 33.12506 | -16.35082 | 2837 ft | 255 kts | 357° |
| 2026-04-24 16:53 | 33.14347 | -16.35115 | 4031 ft | 267 kts | 355° |
| 2026-04-24 16:54 | 33.16272 | -16.34857 | 5157 ft | 297 kts | 15° |
| 2026-04-24 16:54 | 33.18213 | -16.33583 | 5677 ft | 344 kts | 38° |
| 2026-04-24 16:54 | 33.19841 | -16.31260 | 5909 ft | 389 kts | 59° |
| 2026-04-24 16:54 | 33.20873 | -16.28144 | 6334 ft | 419 kts | 73° |
| 2026-04-24 16:55 | 33.21636 | -16.24756 | 7433 ft | 417 kts | 76° |
| 2026-04-24 16:55 | 33.22295 | -16.21394 | 8718 ft | 416 kts | 78° |
| 2026-04-24 16:55 | 33.22904 | -16.18000 | 9835 ft | 418 kts | 77° |
| 2026-04-24 16:55 | 33.23884 | -16.14779 | 11235 ft | 407 kts | 64° |
| 2026-04-24 16:56 | 33.25150 | -16.11861 | 12790 ft | 395 kts | 61° |
| 2026-04-24 16:56 | 33.26425 | -16.08956 | 14364 ft | 385 kts | 62° |
| 2026-04-24 16:56 | 33.27588 | -16.06119 | 15516 ft | 386 kts | 64° |
| 2026-04-24 16:56 | 33.28710 | -16.03177 | 16466 ft | 392 kts | 66° |
| 2026-04-24 16:57 | 33.29807 | -16.00161 | 17409 ft | 398 kts | 66° |
| 2026-04-24 16:57 | 33.30900 | -15.97081 | 18342 ft | 404 kts | 66° |
| 2026-04-24 16:57 | 33.31998 | -15.93961 | 19162 ft | 409 kts | 67° |
| 2026-04-24 16:57 | 33.32730 | -15.91878 | 19710 ft | 412 kts | 66° |
| 2026-04-24 16:58 | 33.33847 | -15.88696 | 20519 ft | 417 kts | 66° |
| 2026-04-24 16:58 | 33.35360 | -15.84386 | 21599 ft | 424 kts | 66° |
| 2026-04-24 16:58 | 33.36491 | -15.81164 | 22380 ft | 429 kts | 66° |
| 2026-04-24 16:58 | 33.37667 | -15.77812 | 23180 ft | 434 kts | 66° |
| 2026-04-24 16:59 | 33.38443 | -15.75599 | 23696 ft | 437 kts | 66° |
| 2026-04-24 16:59 | 33.40008 | -15.71128 | 24532 ft | 444 kts | 66° |
| 2026-04-24 16:59 | 33.43119 | -15.64702 | 25746 ft | 449 kts | 48° |
| 2026-04-24 17:00 | 33.45266 | -15.61983 | 26360 ft | 450 kts | 39° |
| 2026-04-24 17:00 | 33.49895 | -15.56805 | 27522 ft | 460 kts | 39° |
| 2026-04-24 17:00 | 33.52236 | -15.54171 | 28089 ft | 464 kts | 39° |
| 2026-04-24 17:01 | 33.56987 | -15.48818 | 29152 ft | 472 kts | 39° |
| 2026-04-24 17:01 | 33.59390 | -15.46106 | 29662 ft | 476 kts | 39° |
| 2026-04-24 17:02 | 33.64259 | -15.40605 | 30617 ft | 484 kts | 39° |
| 2026-04-24 17:02 | 33.66716 | -15.37825 | 31054 ft | 488 kts | 39° |
| 2026-04-24 17:02 | 33.69188 | -15.35025 | 31518 ft | 490 kts | 39° |
| 2026-04-24 17:02 | 33.71668 | -15.32213 | 32071 ft | 490 kts | 38° |
| 2026-04-24 17:03 | 33.76588 | -15.26625 | 33240 ft | 489 kts | 38° |
| 2026-04-24 17:03 | 33.79058 | -15.23819 | 33805 ft | 489 kts | 38° |
| 2026-04-24 17:03 | 33.81532 | -15.21006 | 34321 ft | 488 kts | 38° |
| 2026-04-24 17:04 | 33.83999 | -15.18201 | 34760 ft | 488 kts | 38° |
| 2026-04-24 17:04 | 33.88923 | -15.12595 | 35663 ft | 487 kts | 38° |
| 2026-04-24 17:04 | 33.91389 | -15.09785 | 36086 ft | 487 kts | 39° |
| 2026-04-24 17:05 | 33.93848 | -15.06980 | 36503 ft | 487 kts | 39° |
| 2026-04-24 17:05 | 33.96307 | -15.04172 | 36931 ft | 486 kts | 39° |
| 2026-04-24 17:05 | 34.01192 | -14.98588 | 37723 ft | 487 kts | 39° |
| 2026-04-24 17:06 | 34.03644 | -14.95781 | 38041 ft | 487 kts | 39° |
| 2026-04-24 17:06 | 34.08539 | -14.90167 | 38151 ft | 484 kts | 39° |
| 2026-04-24 17:06 | 34.10982 | -14.87362 | 38151 ft | 484 kts | 39° |
| 2026-04-24 17:07 | 34.15865 | -14.81750 | 38153 ft | 484 kts | 39° |
| 2026-04-24 17:08 | 34.25631 | -14.70495 | 38155 ft | 485 kts | 40° |
| 2026-04-24 17:08 | 34.30483 | -14.64888 | 38151 ft | 485 kts | 40° |
| 2026-04-24 17:09 | 34.40244 | -14.53580 | 38155 ft | 485 kts | 40° |
| 2026-04-24 17:10 | 34.49967 | -14.42277 | 38155 ft | 486 kts | 40° |
| 2026-04-24 17:12 | 34.69448 | -14.19514 | 38162 ft | 485 kts | 41° |